createdAt,value
2022-09-28T00:00:02.592Z,9.309064
2022-09-28T00:01:02.622Z,9.308944
2022-09-28T00:02:02.663Z,9.308898
2022-09-28T00:03:02.635Z,9.308935
2022-09-28T00:04:02.696Z,9.308949
2022-09-28T00:05:02.560Z,9.309022
2022-09-28T00:06:02.647Z,9.309064
2022-09-28T00:07:02.651Z,9.309164
2022-09-28T00:08:02.633Z,9.309157
2022-09-28T00:09:02.659Z,9.309070
2022-09-28T00:10:02.639Z,9.309154
2022-09-28T00:11:02.670Z,9.309033
2022-09-28T00:12:02.628Z,9.308952
2022-09-28T00:13:02.666Z,9.308923
2022-09-28T00:14:02.637Z,9.309086
2022-09-28T00:15:02.644Z,9.309137
2022-09-28T00:16:02.586Z,9.308992
2022-09-28T00:17:02.502Z,9.308918
2022-09-28T00:18:02.587Z,9.309024
2022-09-28T00:19:02.462Z,9.309080
2022-09-28T00:20:02.465Z,9.309082
2022-09-28T00:21:02.498Z,9.309055
2022-09-28T00:22:02.499Z,9.308958
2022-09-28T00:23:02.460Z,9.309079
2022-09-28T00:24:02.518Z,9.309028
2022-09-28T00:25:02.516Z,9.309057
2022-09-28T00:26:02.541Z,9.309018
2022-09-28T00:27:02.492Z,9.309099
2022-09-28T00:28:02.509Z,9.309006
2022-09-28T00:29:02.477Z,9.308902
2022-09-28T00:30:02.501Z,9.309052
2022-09-28T00:31:02.505Z,9.308964
2022-09-28T00:32:02.948Z,9.309005
2022-09-28T00:33:02.450Z,9.308951
2022-09-28T00:34:02.501Z,9.308935
2022-09-28T00:35:02.424Z,9.308959
2022-09-28T00:36:02.362Z,9.309052
2022-09-28T00:37:02.384Z,9.309061
2022-09-28T00:38:02.332Z,9.309085
2022-09-28T00:39:02.458Z,9.309076
2022-09-28T00:40:02.316Z,9.309033
2022-09-28T00:41:02.316Z,9.309037
2022-09-28T00:42:02.470Z,9.309018
2022-09-28T00:43:02.421Z,9.309013
2022-09-28T00:44:02.380Z,9.309131
2022-09-28T00:45:02.376Z,9.309031
2022-09-28T00:46:02.433Z,9.309164
2022-09-28T00:47:02.392Z,9.309036
2022-09-28T00:48:02.409Z,9.309005
2022-09-28T00:49:02.373Z,9.308928
2022-09-28T00:50:02.354Z,9.308945
2022-09-28T00:51:02.337Z,9.308998
2022-09-28T00:52:02.451Z,9.308951
2022-09-28T00:53:02.313Z,9.308929
2022-09-28T00:54:02.219Z,9.309007
2022-09-28T00:55:02.207Z,9.308995
2022-09-28T00:56:02.203Z,9.308973
2022-09-28T00:57:02.230Z,9.309011
2022-09-28T00:58:02.203Z,9.309005
2022-09-28T00:59:02.239Z,9.309008
2022-09-28T01:00:02.183Z,9.309016
2022-09-28T01:01:02.233Z,9.308999
2022-09-28T01:02:02.202Z,9.308990
2022-09-28T01:03:02.253Z,9.309119
2022-09-28T01:04:02.296Z,9.309115
2022-09-28T01:05:02.220Z,9.309053
2022-09-28T01:06:02.242Z,9.308916
2022-09-28T01:07:02.301Z,9.308902
2022-09-28T01:08:02.224Z,9.308894
2022-09-28T01:09:02.201Z,9.308837
2022-09-28T01:10:02.302Z,9.308869
2022-09-28T01:11:02.234Z,9.308863
2022-09-28T01:12:02.184Z,9.308893
2022-09-28T01:13:02.187Z,9.308912
2022-09-28T01:14:02.096Z,9.308868
2022-09-28T01:15:02.119Z,9.308909
2022-09-28T01:16:02.148Z,9.308848
2022-09-28T01:17:02.151Z,9.308869
2022-09-28T01:18:02.192Z,9.308838
2022-09-28T01:19:02.157Z,9.308825
2022-09-28T01:20:02.048Z,9.308825
2022-09-28T01:21:02.170Z,9.308827
2022-09-28T01:22:02.207Z,9.308971
2022-09-28T01:23:02.030Z,9.309142
2022-09-28T01:24:02.200Z,9.309072
2022-09-28T01:25:02.125Z,9.308957
2022-09-28T01:26:02.071Z,9.308877
2022-09-28T01:27:02.088Z,9.308884
2022-09-28T01:28:02.066Z,9.308830
2022-09-28T01:29:02.020Z,9.308798
2022-09-28T01:30:02.079Z,9.308782
2022-09-28T01:31:02.052Z,9.308791
2022-09-28T01:32:02.099Z,9.308792
2022-09-28T01:33:02.006Z,9.308913
2022-09-28T01:34:01.962Z,9.308924
2022-09-28T01:35:02.031Z,9.308794
2022-09-28T01:36:01.968Z,9.308925
2022-09-28T01:37:02.108Z,9.309117
2022-09-28T01:38:01.950Z,9.309140
2022-09-28T01:39:02.015Z,9.308995
2022-09-28T01:40:02.002Z,9.308896
2022-09-28T01:41:01.917Z,9.308888
2022-09-28T01:42:01.988Z,9.308931
2022-09-28T01:43:02.131Z,9.308963
2022-09-28T01:44:01.881Z,9.308984
2022-09-28T01:45:02.036Z,9.309044
2022-09-28T01:46:02.098Z,9.308984
2022-09-28T01:47:01.878Z,9.308983
2022-09-28T01:48:01.961Z,9.308908
2022-09-28T01:49:01.947Z,9.308909
2022-09-28T01:50:01.907Z,9.308969
2022-09-28T01:51:01.921Z,9.309005
2022-09-28T01:52:01.831Z,9.308930
2022-09-28T01:53:01.846Z,9.309012
2022-09-28T01:54:01.863Z,9.308972
2022-09-28T01:55:01.773Z,9.309025
2022-09-28T01:56:02.838Z,9.308994
2022-09-28T01:57:01.882Z,9.308925
2022-09-28T01:58:01.864Z,9.308928
2022-09-28T01:59:01.829Z,9.308925
2022-09-28T02:00:01.900Z,9.309024
2022-09-28T02:01:01.876Z,9.308988
2022-09-28T02:02:01.859Z,9.309006
2022-09-28T02:03:01.850Z,9.308930
2022-09-28T02:04:01.912Z,9.308917
2022-09-28T02:05:01.761Z,9.308982
2022-09-28T02:06:01.860Z,9.308900
2022-09-28T02:07:01.828Z,9.308871
2022-09-28T02:08:01.724Z,9.308878
2022-09-28T02:09:01.808Z,9.308988
2022-09-28T02:10:01.918Z,9.308962
2022-09-28T02:11:01.716Z,9.308980
2022-09-28T02:12:01.781Z,9.308918
2022-09-28T02:13:01.761Z,9.309048
2022-09-28T02:14:01.672Z,9.309089
2022-09-28T02:15:01.721Z,9.309102
2022-09-28T02:16:01.727Z,9.309011
2022-09-28T02:17:01.668Z,9.309048
2022-09-28T02:18:01.690Z,9.309034
2022-09-28T02:19:02.462Z,9.309020
2022-09-28T02:20:02.679Z,9.308985
2022-09-28T02:21:01.641Z,9.309011
2022-09-28T02:22:01.718Z,9.308986
2022-09-28T02:23:01.618Z,9.308943
2022-09-28T02:24:01.714Z,9.308934
2022-09-28T02:25:01.693Z,9.308991
2022-09-28T02:26:01.625Z,9.308970
2022-09-28T02:27:01.711Z,9.308986
2022-09-28T02:28:01.695Z,9.309066
2022-09-28T02:29:01.583Z,9.308954
2022-09-28T02:30:01.672Z,9.308958
2022-09-28T02:31:01.783Z,9.309032
2022-09-28T02:32:01.588Z,9.309021
2022-09-28T02:33:01.743Z,9.308988
2022-09-28T02:34:01.639Z,9.309025
2022-09-28T02:35:01.519Z,9.308986
2022-09-28T02:36:01.638Z,9.308967
2022-09-28T02:37:01.653Z,9.309006
2022-09-28T02:38:01.520Z,9.309051
2022-09-28T02:39:01.523Z,9.308975
2022-09-28T02:40:01.522Z,9.309025
2022-09-28T02:41:01.551Z,9.309020
2022-09-28T02:42:02.922Z,9.309012
2022-09-28T02:43:01.565Z,9.309026
2022-09-28T02:44:01.454Z,9.308896
2022-09-28T02:45:01.461Z,9.308929
2022-09-28T02:46:01.477Z,9.309019
2022-09-28T02:47:01.456Z,9.309048
2022-09-28T02:48:01.609Z,9.309047
2022-09-28T02:49:20.347Z,9.308872
2022-09-28T02:50:03.440Z,9.308957
2022-09-28T02:51:01.518Z,9.308852
2022-09-28T02:52:01.544Z,9.308853
2022-09-28T02:53:01.430Z,9.308916
2022-09-28T02:54:01.558Z,9.308929
2022-09-28T02:55:01.483Z,9.308905
2022-09-28T02:56:02.412Z,9.308837
2022-09-28T02:57:01.525Z,9.308985
2022-09-28T02:58:01.520Z,9.308968
2022-09-28T02:59:01.389Z,9.308982
2022-09-28T03:00:01.510Z,9.309081
2022-09-28T03:01:01.427Z,9.309004
2022-09-28T03:02:01.428Z,9.308961
2022-09-28T03:03:01.374Z,9.308996
2022-09-28T03:04:02.455Z,9.308985
2022-09-28T03:05:01.338Z,9.309017
2022-09-28T03:06:01.371Z,9.309090
2022-09-28T03:07:01.322Z,9.309014
2022-09-28T03:08:01.306Z,9.309080
2022-09-28T03:09:01.461Z,9.309068
2022-09-28T03:10:01.384Z,9.309157
2022-09-28T03:11:01.320Z,9.309117
2022-09-28T03:12:01.458Z,9.309045
2022-09-28T03:13:01.381Z,9.309058
2022-09-28T03:14:01.252Z,9.309032
2022-09-28T03:15:01.418Z,9.309101
2022-09-28T03:16:01.384Z,9.309124
2022-09-28T03:17:01.241Z,9.309083
2022-09-28T03:18:01.352Z,9.309096
2022-09-28T03:19:01.370Z,9.309103
2022-09-28T03:20:01.250Z,9.309117
2022-09-28T03:21:01.290Z,9.309143
2022-09-28T03:22:01.370Z,9.309114
2022-09-28T03:23:23.407Z,9.308915
2022-09-28T03:24:03.233Z,9.308965
2022-09-28T03:25:01.309Z,9.309039
2022-09-28T03:26:01.211Z,9.309067
2022-09-28T03:27:01.179Z,9.309036
2022-09-28T03:28:01.158Z,9.309108
2022-09-28T03:29:01.145Z,9.309048
2022-09-28T03:30:01.537Z,9.309053
2022-09-28T03:31:01.230Z,9.309082
2022-09-28T03:32:01.224Z,9.309025
2022-09-28T03:33:01.253Z,9.309031
2022-09-28T03:34:01.207Z,9.309060
2022-09-28T03:35:01.128Z,9.309086
2022-09-28T03:36:01.267Z,9.309043
2022-09-28T03:37:01.168Z,9.309006
2022-09-28T03:38:01.109Z,9.309080
2022-09-28T03:39:01.177Z,9.309122
2022-09-28T03:40:01.214Z,9.309142
2022-09-28T03:41:01.161Z,9.309079
2022-09-28T03:42:01.213Z,9.309043
2022-09-28T03:43:01.183Z,9.309026
2022-09-28T03:44:01.070Z,9.308962
2022-09-28T03:45:01.154Z,9.309047
2022-09-28T03:46:01.409Z,9.309153
2022-09-28T03:47:01.045Z,9.309019
2022-09-28T03:48:01.041Z,9.308972
2022-09-28T03:49:01.025Z,9.309037
2022-09-28T03:50:01.037Z,9.309042
2022-09-28T03:51:01.160Z,9.309075
2022-09-28T03:52:01.041Z,9.308999
2022-09-28T03:53:00.998Z,9.309052
2022-09-28T03:54:00.969Z,9.309009
2022-09-28T03:55:00.995Z,9.309021
2022-09-28T03:56:00.969Z,9.309005
2022-09-28T03:57:01.076Z,9.309127
2022-09-28T03:58:01.053Z,9.309075
2022-09-28T03:59:01.060Z,9.308978
2022-09-28T04:00:01.013Z,9.308918
2022-09-28T04:01:01.116Z,9.308993
2022-09-28T04:02:00.957Z,9.309033
2022-09-28T04:03:01.173Z,9.309005
2022-09-28T04:04:01.001Z,9.309052
2022-09-28T04:05:00.912Z,9.309089
2022-09-28T04:06:00.971Z,9.309044
2022-09-28T04:07:00.988Z,9.309031
2022-09-28T04:08:01.889Z,9.308991
2022-09-28T04:09:00.976Z,9.308971
2022-09-28T04:10:00.988Z,9.309092
2022-09-28T04:11:00.854Z,9.309086
2022-09-28T04:12:04.142Z,9.309070
2022-09-28T04:13:01.886Z,9.309070
2022-09-28T04:14:00.822Z,9.309036
2022-09-28T04:15:00.944Z,9.309080
2022-09-28T04:16:01.017Z,9.309097
2022-09-28T04:17:00.895Z,9.309039
2022-09-28T04:18:00.942Z,9.309139
2022-09-28T04:19:00.929Z,9.309072
2022-09-28T04:20:00.943Z,9.309105
2022-09-28T04:21:00.870Z,9.309111
2022-09-28T04:22:00.904Z,9.309126
2022-09-28T04:23:00.769Z,9.309095
2022-09-28T04:24:00.936Z,9.309026
2022-09-28T04:25:00.869Z,9.309067
2022-09-28T04:26:00.744Z,9.309017
2022-09-28T04:27:00.853Z,9.308992
2022-09-28T04:28:00.867Z,9.309089
2022-09-28T04:29:05.447Z,9.309067
2022-09-28T04:30:02.935Z,9.309078
2022-09-28T04:31:00.734Z,9.309068
2022-09-28T04:32:00.749Z,9.309079
2022-09-28T04:33:00.723Z,9.309119
2022-09-28T04:34:00.813Z,9.309107
2022-09-28T04:35:00.702Z,9.309096
2022-09-28T04:36:00.743Z,9.309017
2022-09-28T04:37:00.687Z,9.309071
2022-09-28T04:38:00.689Z,9.309016
2022-09-28T04:39:01.516Z,9.309131
2022-09-28T04:40:00.733Z,9.309124
2022-09-28T04:41:00.817Z,9.309060
2022-09-28T04:42:00.745Z,9.308933
2022-09-28T04:43:00.742Z,9.308825
2022-09-28T04:44:00.642Z,9.308914
2022-09-28T04:45:00.759Z,9.309054
2022-09-28T04:46:01.790Z,9.309028
2022-09-28T04:47:04.324Z,9.309134
2022-09-28T04:48:13.429Z,9.309125
2022-09-28T04:49:00.604Z,9.309155
2022-09-28T04:50:11.079Z,9.309138
2022-09-28T04:51:00.582Z,9.309173
2022-09-28T04:52:00.611Z,9.309249
2022-09-28T04:53:00.554Z,9.309175
2022-09-28T04:54:01.682Z,9.309175
2022-09-28T04:55:00.572Z,9.309070
2022-09-28T04:56:00.576Z,9.309101
2022-09-28T04:57:00.683Z,9.309156
2022-09-28T04:58:01.538Z,9.309127
2022-09-28T04:59:00.610Z,9.309138
2022-09-28T05:00:00.617Z,9.309122
2022-09-28T05:01:00.741Z,9.309098
2022-09-28T05:02:00.530Z,9.309057
2022-09-28T05:03:00.668Z,9.309112
2022-09-28T05:04:00.600Z,9.309084
2022-09-28T05:05:00.520Z,9.309060
2022-09-28T05:06:00.490Z,9.309134
2022-09-28T05:07:00.490Z,9.309102
2022-09-28T05:08:00.663Z,9.309076
2022-09-28T05:09:00.474Z,9.309113
2022-09-28T05:10:00.478Z,9.309136
2022-09-28T05:11:00.446Z,9.309103
2022-09-28T05:12:00.482Z,9.309115
2022-09-28T05:13:00.500Z,9.309066
2022-09-28T05:14:00.634Z,9.309061
2022-09-28T05:15:00.426Z,9.309073
2022-09-28T05:16:05.073Z,9.309098
2022-09-28T05:17:02.501Z,9.309111
2022-09-28T05:18:00.393Z,9.309053
2022-09-28T05:19:00.542Z,9.309067
2022-09-28T05:20:00.474Z,9.309060
2022-09-28T05:21:00.387Z,9.309044
2022-09-28T05:22:00.470Z,9.309048
2022-09-28T05:23:00.455Z,9.309017
2022-09-28T05:24:00.394Z,9.309084
2022-09-28T05:25:00.517Z,9.308969
2022-09-28T05:26:00.436Z,9.309027
2022-09-28T05:27:00.436Z,9.309052
2022-09-28T05:28:00.334Z,9.309002
2022-09-28T05:29:00.357Z,9.308988
2022-09-28T05:30:00.457Z,9.309044
2022-09-28T05:31:00.328Z,9.309123
2022-09-28T05:32:00.361Z,9.309052
2022-09-28T05:33:00.343Z,9.308795
2022-09-28T05:34:00.391Z,9.308914
2022-09-28T05:35:00.435Z,9.309076
2022-09-28T05:36:01.669Z,9.309002
2022-09-28T05:37:01.395Z,9.309075
2022-09-28T05:38:00.378Z,9.309002
2022-09-28T05:39:00.259Z,9.309081
2022-09-28T05:40:00.387Z,9.308966
2022-09-28T05:41:03.283Z,9.309064
2022-09-28T05:42:02.289Z,9.308938
2022-09-28T05:43:00.315Z,9.308960
2022-09-28T05:44:00.395Z,9.308920
2022-09-28T05:45:00.243Z,9.309010
2022-09-28T05:46:00.396Z,9.309007
2022-09-28T05:47:00.647Z,9.309086
2022-09-28T05:48:00.290Z,9.309136
2022-09-28T05:49:00.279Z,9.309046
2022-09-28T05:50:00.267Z,9.309019
2022-09-28T05:51:00.184Z,9.308888
2022-09-28T05:52:00.228Z,9.308906
2022-09-28T05:53:32.154Z,9.308906
2022-09-28T05:54:32.168Z,9.308833
2022-09-28T05:55:32.465Z,9.309024
2022-09-28T05:56:32.164Z,9.309016
2022-09-28T05:57:00.161Z,9.308951
2022-09-28T05:58:32.272Z,9.308923
2022-09-28T05:59:32.123Z,9.308863
2022-09-28T06:00:32.178Z,9.308907
2022-09-28T06:01:32.368Z,9.308947
2022-09-28T06:02:00.207Z,9.308925
2022-09-28T06:03:00.154Z,9.308935
2022-09-28T06:04:01.267Z,9.308998
2022-09-28T06:05:00.227Z,9.309041
2022-09-28T06:06:00.115Z,9.309034
2022-09-28T06:07:00.172Z,9.308933
2022-09-28T06:08:00.164Z,9.308948
2022-09-28T06:09:00.198Z,9.309045
2022-09-28T06:10:00.183Z,9.309087
2022-09-28T06:11:00.134Z,9.308959
2022-09-28T06:12:00.650Z,9.309051
2022-09-28T06:13:00.020Z,9.309014
2022-09-28T06:14:01.088Z,9.309039
2022-09-28T06:15:00.100Z,9.309017
2022-09-28T06:16:00.126Z,9.309011
2022-09-28T06:17:00.199Z,9.309064
2022-09-28T06:17:59.987Z,9.309048
2022-09-28T06:19:00.640Z,9.309125
2022-09-28T06:20:00.148Z,9.309178
2022-09-28T06:20:59.973Z,9.309011
2022-09-28T06:22:00.058Z,9.309065
2022-09-28T06:23:00.111Z,9.309081
2022-09-28T06:23:59.944Z,9.308931
2022-09-28T06:25:01.130Z,9.308967
2022-09-28T06:26:00.028Z,9.309075
2022-09-28T06:26:59.967Z,9.308977
2022-09-28T06:28:00.007Z,9.309063
2022-09-28T06:29:00.087Z,9.308940
2022-09-28T06:29:59.914Z,9.308957
2022-09-28T06:31:00.182Z,9.308964
2022-09-28T06:31:59.908Z,9.308931
2022-09-28T06:32:59.911Z,9.308964
2022-09-28T06:34:00.067Z,9.309011
2022-09-28T06:34:59.893Z,9.308948
2022-09-28T06:35:59.899Z,9.308941
2022-09-28T06:37:00.036Z,9.309078
2022-09-28T06:37:59.929Z,9.309104
2022-09-28T06:38:59.852Z,9.309028
2022-09-28T06:39:59.941Z,9.308964
2022-09-28T06:41:00.093Z,9.308941
2022-09-28T06:41:59.843Z,9.308951
2022-09-28T06:42:59.946Z,9.309019
2022-09-28T06:43:59.981Z,9.308981
2022-09-28T06:44:59.804Z,9.308981
2022-09-28T06:46:00.020Z,9.309010
2022-09-28T06:46:59.920Z,9.309014
2022-09-28T06:47:59.783Z,9.309015
2022-09-28T06:48:59.867Z,9.309037
2022-09-28T06:49:59.846Z,9.308983
2022-09-28T06:50:59.758Z,9.309057
2022-09-28T06:52:00.243Z,9.309071
2022-09-28T06:52:59.756Z,9.309075
2022-09-28T06:53:59.790Z,9.309017
2022-09-28T06:54:59.745Z,9.309063
2022-09-28T06:55:59.816Z,9.309098
2022-09-28T06:56:59.714Z,9.309074
2022-09-28T06:57:59.734Z,9.309023
2022-09-28T06:58:59.720Z,9.308972
2022-09-28T06:59:59.682Z,9.308925
2022-09-28T07:00:59.751Z,9.308961
2022-09-28T07:02:00.719Z,9.308996
2022-09-28T07:02:59.710Z,9.309038
2022-09-28T07:03:59.742Z,9.309057
2022-09-28T07:04:59.797Z,9.309050
2022-09-28T07:05:59.645Z,9.309050
2022-09-28T07:06:59.820Z,9.309029
2022-09-28T07:07:59.769Z,9.309066
2022-09-28T07:09:15.508Z,9.308945
2022-09-28T07:10:01.657Z,9.308989
2022-09-28T07:10:59.680Z,9.309079
2022-09-28T07:11:59.662Z,9.309055
2022-09-28T07:12:59.700Z,9.309073
2022-09-28T07:13:59.710Z,9.309060
2022-09-28T07:14:59.584Z,9.309003
2022-09-28T07:15:59.705Z,9.308971
2022-09-28T07:17:13.293Z,9.309214
2022-09-28T07:18:03.481Z,9.309226
2022-09-28T07:19:00.591Z,9.309208
2022-09-28T07:20:05.890Z,9.309097
2022-09-28T07:21:01.581Z,9.309015
2022-09-28T07:22:05.126Z,9.309008
2022-09-28T07:23:13.949Z,9.309076
2022-09-28T07:24:01.771Z,9.309153
2022-09-28T07:24:59.567Z,9.309031
2022-09-28T07:25:59.662Z,9.309062
2022-09-28T07:26:59.705Z,9.309060
2022-09-28T07:27:59.510Z,9.308969
2022-09-28T07:28:59.602Z,9.309001
2022-09-28T07:29:59.713Z,9.308982
2022-09-28T07:30:59.517Z,9.309033
2022-09-28T07:31:59.747Z,9.309086
2022-09-28T07:32:59.641Z,9.309086
2022-09-28T07:33:59.435Z,9.309068
2022-09-28T07:34:59.646Z,9.309114
2022-09-28T07:35:59.547Z,9.309149
2022-09-28T07:36:59.444Z,9.309089
2022-09-28T07:37:59.528Z,9.309043
2022-09-28T07:38:59.495Z,9.309018
2022-09-28T07:39:59.540Z,9.309082
2022-09-28T07:40:59.498Z,9.309118
2022-09-28T07:42:02.529Z,9.309027
2022-09-28T07:43:00.384Z,9.308977
2022-09-28T07:43:59.481Z,9.309107
2022-09-28T07:44:59.393Z,9.309177
2022-09-28T07:45:59.448Z,9.308919
2022-09-28T07:46:59.448Z,9.309047
2022-09-28T07:47:59.496Z,9.309019
2022-09-28T07:48:59.354Z,9.309044
2022-09-28T07:49:59.437Z,9.309126
2022-09-28T07:50:59.503Z,9.309061
2022-09-28T07:51:59.341Z,9.309035
2022-09-28T07:52:59.458Z,9.309150
2022-09-28T07:53:59.405Z,9.309294
2022-09-28T07:55:03.350Z,9.309156
2022-09-28T07:56:00.764Z,9.309191
2022-09-28T07:56:59.271Z,9.308978
2022-09-28T07:58:00.377Z,9.309057
2022-09-28T07:58:59.427Z,9.309039
2022-09-28T07:59:59.361Z,9.309141
2022-09-28T08:00:59.391Z,9.309311
2022-09-28T08:01:59.518Z,9.309239
2022-09-28T08:02:59.288Z,9.309067
2022-09-28T08:03:59.236Z,9.308977
2022-09-28T08:04:59.232Z,9.308876
2022-09-28T08:05:59.248Z,9.308949
2022-09-28T08:06:59.324Z,9.309007
2022-09-28T08:07:59.862Z,9.309005
2022-09-28T08:08:59.200Z,9.309093
2022-09-28T08:09:59.299Z,9.308869
2022-09-28T08:10:59.284Z,9.308671
2022-09-28T08:11:59.323Z,9.308752
2022-09-28T08:13:02.098Z,9.308978
2022-09-28T08:13:59.306Z,9.308888
2022-09-28T08:14:59.251Z,9.308950
2022-09-28T08:15:59.240Z,9.309162
2022-09-28T08:16:59.268Z,9.309155
2022-09-28T08:18:02.627Z,9.309006
2022-09-28T08:19:00.248Z,9.309107
2022-09-28T08:19:59.212Z,9.309082
2022-09-28T08:20:59.187Z,9.308966
2022-09-28T08:21:59.188Z,9.308996
2022-09-28T08:22:59.138Z,9.309033
2022-09-28T08:23:59.119Z,9.309012
2022-09-28T08:24:59.219Z,9.309033
2022-09-28T08:25:59.087Z,9.308994
2022-09-28T08:26:59.086Z,9.309017
2022-09-28T08:27:59.060Z,9.309017
2022-09-28T08:28:59.093Z,9.309054
2022-09-28T08:29:59.123Z,9.309028
2022-09-28T08:30:59.209Z,9.308997
2022-09-28T08:32:01.581Z,9.309017
2022-09-28T08:33:00.121Z,9.309007
2022-09-28T08:33:59.172Z,9.309019
2022-09-28T08:34:59.162Z,9.309059
2022-09-28T08:35:59.104Z,9.309126
2022-09-28T08:36:59.145Z,9.309091
2022-09-28T08:37:59.090Z,9.309097
2022-09-28T08:38:59.095Z,9.309101
2022-09-28T08:39:59.088Z,9.309066
2022-09-28T08:40:59.133Z,9.308971
2022-09-28T08:41:59.078Z,9.308964
2022-09-28T08:42:58.978Z,9.309017
2022-09-28T08:43:58.944Z,9.309091
2022-09-28T08:44:59.070Z,9.309088
2022-09-28T08:45:59.012Z,9.308993
2022-09-28T08:46:58.948Z,9.309030
2022-09-28T08:47:59.049Z,9.309044
2022-09-28T08:49:24.271Z,9.309052
2022-09-28T08:50:00.959Z,9.309093
2022-09-28T08:50:59.015Z,9.309058
2022-09-28T08:51:58.997Z,9.308990
2022-09-28T08:52:58.966Z,9.309035
2022-09-28T08:53:58.971Z,9.308981
2022-09-28T08:54:58.884Z,9.308974
2022-09-28T08:55:59.031Z,9.308965
2022-09-28T08:56:58.960Z,9.309035
2022-09-28T08:57:59.085Z,9.308999
2022-09-28T08:58:58.936Z,9.309041
2022-09-28T08:59:59.087Z,9.309120
2022-09-28T09:00:59.114Z,9.309063
2022-09-28T09:01:58.937Z,9.308968
2022-09-28T09:02:58.857Z,9.309014
2022-09-28T09:03:58.933Z,9.309047
2022-09-28T09:04:58.804Z,9.309028
2022-09-28T09:05:58.881Z,9.308974
2022-09-28T09:06:58.948Z,9.309039
2022-09-28T09:07:58.874Z,9.308979
2022-09-28T09:08:58.882Z,9.308955
2022-09-28T09:09:58.836Z,9.308924
2022-09-28T09:10:59.677Z,9.308960
2022-09-28T09:11:58.893Z,9.308958
2022-09-28T09:12:58.864Z,9.308971
2022-09-28T09:13:58.826Z,9.308959
2022-09-28T09:14:58.815Z,9.308960
2022-09-28T09:15:58.756Z,9.308972
2022-09-28T09:17:00.475Z,9.308957
2022-09-28T09:17:59.771Z,9.308969
2022-09-28T09:18:58.722Z,9.309018
2022-09-28T09:19:59.806Z,9.309062
2022-09-28T09:20:58.888Z,9.309074
2022-09-28T09:21:58.805Z,9.309089
2022-09-28T09:22:58.897Z,9.309113
2022-09-28T09:23:58.794Z,9.309142
2022-09-28T09:24:58.801Z,9.309032
2022-09-28T09:25:58.782Z,9.309039
2022-09-28T09:26:58.817Z,9.308954
2022-09-28T09:27:58.706Z,9.309038
2022-09-28T09:28:58.766Z,9.309100
2022-09-28T09:29:58.721Z,9.308990
2022-09-28T09:30:58.749Z,9.308967
2022-09-28T09:31:58.616Z,9.308982
2022-09-28T09:32:58.589Z,9.309099
2022-09-28T09:33:58.704Z,9.308981
2022-09-28T09:34:58.730Z,9.308970
2022-09-28T09:35:58.757Z,9.308898
2022-09-28T09:36:58.664Z,9.308960
2022-09-28T09:37:58.803Z,9.309009
2022-09-28T09:38:58.693Z,9.309053
2022-09-28T09:39:59.712Z,9.309086
2022-09-28T09:40:58.688Z,9.309063
2022-09-28T09:41:58.674Z,9.309098
2022-09-28T09:42:58.718Z,9.309100
2022-09-28T09:43:58.685Z,9.309089
2022-09-28T09:44:58.629Z,9.309028
2022-09-28T09:45:58.566Z,9.309071
2022-09-28T09:46:58.511Z,9.309102
2022-09-28T09:47:58.564Z,9.308969
2022-09-28T09:48:58.528Z,9.308986
2022-09-28T09:49:58.512Z,9.308972
2022-09-28T09:50:58.554Z,9.309004
2022-09-28T09:51:58.488Z,9.309030
2022-09-28T09:52:58.541Z,9.309019
2022-09-28T09:53:58.536Z,9.309007
2022-09-28T09:54:58.451Z,9.309023
2022-09-28T09:55:58.584Z,9.309052
2022-09-28T09:56:58.550Z,9.309090
2022-09-28T09:57:58.528Z,9.309022
2022-09-28T09:58:58.527Z,9.309061
2022-09-28T09:59:58.497Z,9.309025
2022-09-28T10:00:58.568Z,9.309032
2022-09-28T10:01:58.891Z,9.309043
2022-09-28T10:02:58.566Z,9.309147
2022-09-28T10:03:58.385Z,9.309083
2022-09-28T10:04:58.374Z,9.309173
2022-09-28T10:05:58.479Z,9.309080
2022-09-28T10:06:58.442Z,9.309078
2022-09-28T10:07:58.382Z,9.309016
2022-09-28T10:08:58.363Z,9.309109
2022-09-28T10:09:58.373Z,9.309186
2022-09-28T10:10:58.354Z,9.309196
2022-09-28T10:11:58.434Z,9.308967
2022-09-28T10:12:58.463Z,9.308964
2022-09-28T10:13:58.470Z,9.308998
2022-09-28T10:14:58.381Z,9.309056
2022-09-28T10:15:58.416Z,9.309031
2022-09-28T10:16:58.425Z,9.309021
2022-09-28T10:17:58.423Z,9.309081
2022-09-28T10:18:58.441Z,9.309148
2022-09-28T10:19:58.361Z,9.309143
2022-09-28T10:20:58.382Z,9.309028
2022-09-28T10:21:58.390Z,9.308944
2022-09-28T10:22:58.249Z,9.309114
2022-09-28T10:23:58.300Z,9.309130
2022-09-28T10:24:58.253Z,9.309107
2022-09-28T10:25:58.359Z,9.309153
2022-09-28T10:26:58.256Z,9.309204
2022-09-28T10:27:58.219Z,9.309299
2022-09-28T10:28:58.247Z,9.309360
2022-09-28T10:29:58.370Z,9.309154
2022-09-28T10:30:58.370Z,9.309063
2022-09-28T10:31:58.364Z,9.309128
2022-09-28T10:32:58.350Z,9.309070
2022-09-28T10:33:58.337Z,9.309087
2022-09-28T10:34:58.262Z,9.309067
2022-09-28T10:35:58.737Z,9.309094
2022-09-28T10:36:58.347Z,9.309168
2022-09-28T10:37:58.249Z,9.309156
2022-09-28T10:38:58.268Z,9.309243
2022-09-28T10:39:58.284Z,9.309168
2022-09-28T10:40:58.202Z,9.309117
2022-09-28T10:41:58.125Z,9.309081
2022-09-28T10:42:58.210Z,9.309096
2022-09-28T10:43:58.246Z,9.309128
2022-09-28T10:44:59.257Z,9.309207
2022-09-28T10:45:58.269Z,9.309177
2022-09-28T10:46:58.247Z,9.309164
2022-09-28T10:47:58.214Z,9.309103
2022-09-28T10:48:58.169Z,9.309085
2022-09-28T10:49:58.229Z,9.309175
2022-09-28T10:50:58.167Z,9.309211
2022-09-28T10:51:58.154Z,9.309185
2022-09-28T10:52:58.174Z,9.309200
2022-09-28T10:53:58.138Z,9.309150
2022-09-28T10:54:58.202Z,9.309158
2022-09-28T10:55:58.165Z,9.309151
2022-09-28T10:56:58.025Z,9.309151
2022-09-28T10:57:57.994Z,9.309178
2022-09-28T10:58:58.088Z,9.309119
2022-09-28T10:59:58.089Z,9.309168
2022-09-28T11:00:58.161Z,9.309178
2022-09-28T11:01:58.086Z,9.309161
2022-09-28T11:02:58.417Z,9.309125
2022-09-28T11:03:58.031Z,9.309107
2022-09-28T11:04:58.048Z,9.309151
2022-09-28T11:05:58.074Z,9.309155
2022-09-28T11:07:58.056Z,9.309114
2022-09-28T11:08:58.029Z,9.309143
2022-09-28T11:09:57.929Z,9.309164
2022-09-28T11:10:57.960Z,9.309114
2022-09-28T11:11:58.062Z,9.309144
2022-09-28T11:12:57.892Z,9.309143
2022-09-28T11:13:57.930Z,9.309270
2022-09-28T11:14:57.878Z,9.309164
2022-09-28T11:15:57.875Z,9.309143
2022-09-28T11:16:57.948Z,9.309190
2022-09-28T11:17:57.889Z,9.309109
2022-09-28T11:18:57.990Z,9.309064
2022-09-28T11:19:57.948Z,9.309021
2022-09-28T11:20:57.941Z,9.309099
2022-09-28T11:21:57.911Z,9.309173
2022-09-28T11:22:57.961Z,9.309155
2022-09-28T11:23:57.906Z,9.309160
2022-09-28T11:24:57.911Z,9.309137
2022-09-28T11:25:57.897Z,9.309150
2022-09-28T11:26:57.878Z,9.309100
2022-09-28T11:27:57.910Z,9.309198
2022-09-28T11:28:57.810Z,9.309148
2022-09-28T11:29:57.788Z,9.309115
2022-09-28T11:30:57.830Z,9.309086
2022-09-28T11:31:57.751Z,9.309118
2022-09-28T11:32:57.748Z,9.309135
2022-09-28T11:33:57.856Z,9.309083
2022-09-28T11:35:00.084Z,9.309100
2022-09-28T11:35:58.937Z,9.309099
2022-09-28T11:37:01.588Z,9.309095
2022-09-28T11:37:58.935Z,9.309099
2022-09-28T11:38:57.766Z,9.309127
2022-09-28T11:39:57.854Z,9.309067
2022-09-28T11:40:57.827Z,9.309116
2022-09-28T11:41:57.877Z,9.309108
2022-09-28T11:42:57.833Z,9.309220
2022-09-28T11:43:57.779Z,9.309106
2022-09-28T11:44:57.813Z,9.309115